createdAt,value
2023-01-12T00:00:22.737Z,90.80
2023-01-12T00:05:24.846Z,90.80
2023-01-12T00:10:26.939Z,90.80
2023-01-12T00:15:30.460Z,90.70
2023-01-12T00:20:32.636Z,90.70
2023-01-12T00:25:34.718Z,90.50
2023-01-12T00:30:38.267Z,90.50
2023-01-12T00:35:40.441Z,90.40
2023-01-12T00:40:42.547Z,90.50
2023-01-12T00:45:49.783Z,90.60
2023-01-12T00:50:51.617Z,91.00
2023-01-12T00:55:53.668Z,91.00
2023-01-12T01:01:05.609Z,91.00
2023-01-12T01:06:08.482Z,91.10
2023-01-12T01:11:12.500Z,91.00
2023-01-12T01:16:18.155Z,91.10
2023-01-12T01:21:20.297Z,91.10
2023-01-12T01:26:23.609Z,91.10
2023-01-12T01:31:27.458Z,91.20
2023-01-12T01:36:29.624Z,91.30
2023-01-12T01:41:32.997Z,91.40
2023-01-12T01:46:42.511Z,91.40
2023-01-12T01:51:46.149Z,91.30
2023-01-12T01:56:50.147Z,91.30
2023-01-12T02:01:55.161Z,91.30
2023-01-12T02:06:59.714Z,91.30
2023-01-12T02:12:02.776Z,91.20
2023-01-12T02:17:19.707Z,91.10
2023-01-12T02:22:53.665Z,91.10
2023-01-12T02:28:31.206Z,91.00
2023-01-12T02:33:49.296Z,91.00
2023-01-12T02:38:57.500Z,91.00
2023-01-12T02:43:59.705Z,90.90
2023-01-12T02:49:08.381Z,90.90
2023-01-12T02:54:12.660Z,91.40
2023-01-12T02:59:18.651Z,91.00
2023-01-12T03:04:24.190Z,91.10
2023-01-12T03:09:31.143Z,91.20
2023-01-12T03:14:38.285Z,91.20
2023-01-12T03:19:44.860Z,91.30
2023-01-12T03:24:49.820Z,91.30
2023-01-12T03:29:57.356Z,91.30
2023-01-12T03:35:01.127Z,91.20
2023-01-12T03:40:09.498Z,91.20
2023-01-12T03:45:19.951Z,91.30
2023-01-12T03:50:29.017Z,91.30
2023-01-12T03:55:32.986Z,91.30
2023-01-12T04:00:35.828Z,91.30
2023-01-12T04:05:40.357Z,91.40
2023-01-12T04:10:42.543Z,91.50
2023-01-12T04:15:46.443Z,91.70
2023-01-12T04:20:49.962Z,91.50
2023-01-12T04:25:52.071Z,91.60
2023-01-12T04:30:54.201Z,91.70
2023-01-12T04:35:57.725Z,91.70
2023-01-12T04:40:59.867Z,91.80
2023-01-12T04:46:05.494Z,91.90
2023-01-12T04:51:09.058Z,92.00
2023-01-12T04:56:11.133Z,92.00
2023-01-12T05:01:15.369Z,92.10
2023-01-12T05:06:18.939Z,92.60
2023-01-12T05:11:21.426Z,92.20
2023-01-12T05:16:23.961Z,92.20
2023-01-12T05:21:27.485Z,92.20
2023-01-12T05:26:29.606Z,92.30
2023-01-12T05:31:34.477Z,92.30
2023-01-12T05:36:37.998Z,92.40
2023-01-12T05:41:40.110Z,92.30
2023-01-12T05:46:42.302Z,92.40
2023-01-12T05:51:45.839Z,92.40
2023-01-12T05:56:49.867Z,92.50
2023-01-12T06:01:52.331Z,92.40
2023-01-12T06:06:55.842Z,92.40
2023-01-12T06:11:57.918Z,92.40
2023-01-12T06:17:00.094Z,92.40
2023-01-12T06:22:03.561Z,92.40
2023-01-12T06:27:05.733Z,92.40
2023-01-12T06:32:07.951Z,92.50
2023-01-12T06:37:11.495Z,92.60
2023-01-12T06:42:13.604Z,92.70
2023-01-12T06:47:15.720Z,92.90
2023-01-12T06:52:20.667Z,92.90
2023-01-12T06:57:22.980Z,93.00
2023-01-12T07:02:25.080Z,93.10
2023-01-12T07:07:28.662Z,93.00
2023-01-12T07:12:31.163Z,93.10
2023-01-12T07:17:33.397Z,93.20
2023-01-12T07:22:37.030Z,93.20
2023-01-12T07:27:39.118Z,93.30
2023-01-12T07:32:41.813Z,93.30
2023-01-12T07:37:49.324Z,93.50
2023-01-12T07:42:59.437Z,93.50
2023-01-12T07:48:01.658Z,93.60
2023-01-12T07:53:05.268Z,93.70
2023-01-12T07:58:07.417Z,93.70
2023-01-12T08:03:11.948Z,93.80
2023-01-12T08:08:15.750Z,93.80
2023-01-12T08:13:18.631Z,93.80
2023-01-12T08:18:25.590Z,93.80
2023-01-12T08:23:33.997Z,93.80
2023-01-12T08:28:40.361Z,93.90
2023-01-12T08:33:43.331Z,93.80
2023-01-12T08:38:47.074Z,93.90
2023-01-12T08:43:49.185Z,93.80
2023-01-12T08:48:51.377Z,93.80
2023-01-12T08:53:55.001Z,93.90
2023-01-12T08:58:57.065Z,93.90
2023-01-12T09:04:00.076Z,93.90
2023-01-12T09:09:06.521Z,93.90
2023-01-12T09:14:09.027Z,93.90
2023-01-12T09:19:11.422Z,94.00
2023-01-12T09:24:15.894Z,94.00
2023-01-12T09:29:18.005Z,94.00
2023-01-12T09:34:20.167Z,93.90
2023-01-12T09:39:27.725Z,93.90
2023-01-12T09:44:35.092Z,94.00
2023-01-12T09:49:41.632Z,94.00
2023-01-12T09:54:47.928Z,94.00
2023-01-12T09:59:58.522Z,94.10
2023-01-12T10:05:06.217Z,94.10
2023-01-12T10:10:15.644Z,93.90
2023-01-12T10:15:41.068Z,93.90
2023-01-12T10:20:45.086Z,93.80
2023-01-12T10:25:51.560Z,93.60
2023-01-12T10:30:56.422Z,93.70
2023-01-12T10:36:01.881Z,94.00
2023-01-12T10:41:12.553Z,93.90
2023-01-12T10:46:16.898Z,93.70
2023-01-12T10:51:25.371Z,93.50
2023-01-12T10:56:34.179Z,93.70
2023-01-12T11:01:47.915Z,93.60
2023-01-12T11:07:00.484Z,93.50
2023-01-12T11:12:06.595Z,93.30
2023-01-12T11:17:27.996Z,93.40
2023-01-12T11:22:33.253Z,93.60
2023-01-12T11:27:42.310Z,93.40
2023-01-12T11:32:48.632Z,93.00
2023-01-12T11:37:55.554Z,92.80
2023-01-12T11:43:10.852Z,92.70
2023-01-12T11:48:22.383Z,92.60
2023-01-12T11:53:25.608Z,92.60
2023-01-12T11:58:36.527Z,92.50
2023-01-12T12:03:58.896Z,92.30
2023-01-12T12:09:13.140Z,92.30
2023-01-12T12:14:33.069Z,92.30
2023-01-12T12:19:45.099Z,92.30
2023-01-12T12:25:13.579Z,92.40
2023-01-12T12:30:48.935Z,92.40
2023-01-12T12:36:13.395Z,92.30
2023-01-12T12:41:32.119Z,92.10
2023-01-12T12:46:45.677Z,92.00
2023-01-12T12:51:48.825Z,92.10
2023-01-12T12:56:51.173Z,92.10
2023-01-12T13:01:58.993Z,92.20
2023-01-12T13:07:06.506Z,92.30
2023-01-12T13:12:21.925Z,92.40
2023-01-12T13:17:44.036Z,92.50
2023-01-12T13:22:48.302Z,92.50
2023-01-12T13:27:52.867Z,93.00
2023-01-12T13:33:01.201Z,92.60
2023-01-12T13:38:11.783Z,92.70
2023-01-12T13:43:20.574Z,92.70
2023-01-12T13:48:25.413Z,92.70
2023-01-12T13:53:29.614Z,92.70
2023-01-12T13:58:39.290Z,92.70
2023-01-12T14:04:01.163Z,92.80
2023-01-12T14:09:14.738Z,92.70
2023-01-12T14:15:04.620Z,92.60
2023-01-12T14:20:16.570Z,92.50
2023-01-12T14:25:22.050Z,92.50
2023-01-12T14:30:27.031Z,92.50
2023-01-12T14:35:30.598Z,92.50
2023-01-12T14:40:34.031Z,92.50
2023-01-12T14:45:37.245Z,92.50
2023-01-12T14:50:40.913Z,92.50
2023-01-12T14:55:43.094Z,92.60
2023-01-12T15:00:45.339Z,92.60
2023-01-12T15:05:49.022Z,92.60
2023-01-12T15:10:57.889Z,92.60
2023-01-12T15:16:01.390Z,92.60
2023-01-12T15:21:05.421Z,92.60
2023-01-12T15:26:07.576Z,92.50
2023-01-12T15:31:19.389Z,92.50
2023-01-12T15:36:23.319Z,92.50
2023-01-12T15:41:29.169Z,92.50
2023-01-12T15:46:31.417Z,92.50
2023-01-12T15:51:35.887Z,92.50
2023-01-12T15:56:38.022Z,92.40
2023-01-12T16:01:44.046Z,92.40
2023-01-12T16:06:47.712Z,92.40
2023-01-12T16:11:49.861Z,92.50
2023-01-12T16:16:52.057Z,92.50
2023-01-12T16:21:56.927Z,92.50
2023-01-12T16:26:59.076Z,92.50
2023-01-12T16:32:01.249Z,92.60
2023-01-12T16:37:05.374Z,92.70
2023-01-12T16:42:07.518Z,92.70
2023-01-12T16:47:13.423Z,92.80
2023-01-12T16:52:19.292Z,92.90
2023-01-12T16:57:21.425Z,92.90
2023-01-12T17:02:23.899Z,92.90
2023-01-12T17:07:28.675Z,92.90
2023-01-12T17:12:31.472Z,93.00
2023-01-12T17:17:34.308Z,93.00
2023-01-12T17:22:38.143Z,93.00
2023-01-12T17:27:40.289Z,93.10
2023-01-12T17:32:42.483Z,93.10
2023-01-12T17:37:46.173Z,93.10
2023-01-12T17:42:48.291Z,93.20
2023-01-12T17:47:50.503Z,93.10
2023-01-12T17:52:54.040Z,93.20
2023-01-12T17:57:56.259Z,93.10
2023-01-12T18:02:58.979Z,93.20
2023-01-12T18:08:02.495Z,93.20
2023-01-12T18:13:04.858Z,93.20
2023-01-12T18:18:07.363Z,93.20
2023-01-12T18:23:11.157Z,93.20
2023-01-12T18:28:13.453Z,93.30
2023-01-12T18:33:15.592Z,93.30
2023-01-12T18:38:19.360Z,93.30
2023-01-12T18:43:21.509Z,93.20
2023-01-12T18:48:23.624Z,93.30
2023-01-12T18:53:27.216Z,93.30
2023-01-12T18:58:31.420Z,93.30
2023-01-12T19:03:33.616Z,93.30
2023-01-12T19:08:37.186Z,93.30
2023-01-12T19:13:40.211Z,93.30
2023-01-12T19:18:42.315Z,93.30
2023-01-12T19:23:46.544Z,93.30
2023-01-12T19:28:48.733Z,93.30
2023-01-12T19:33:50.877Z,93.40
2023-01-12T19:38:54.471Z,93.40
2023-01-12T19:43:56.706Z,93.30
2023-01-12T19:48:58.870Z,93.30
2023-01-12T19:54:02.391Z,93.30
2023-01-12T19:59:04.654Z,93.20
2023-01-12T20:04:06.780Z,93.40
2023-01-12T20:09:10.318Z,93.10
2023-01-12T20:14:13.626Z,93.10
2023-01-12T20:19:15.804Z,93.00
2023-01-12T20:24:19.366Z,93.00
2023-01-12T20:29:23.975Z,93.00
2023-01-12T20:34:30.790Z,93.00
2023-01-12T20:39:34.445Z,93.00
2023-01-12T20:44:36.581Z,93.00
2023-01-12T20:49:38.848Z,93.00
2023-01-12T20:54:42.477Z,93.00
2023-01-12T20:59:44.869Z,92.90
2023-01-12T21:04:47.007Z,92.90
2023-01-12T21:09:50.535Z,92.90
2023-01-12T21:14:52.623Z,92.90
2023-01-12T21:19:54.705Z,92.90
2023-01-12T21:24:58.219Z,92.80
2023-01-12T21:30:00.345Z,92.70
2023-01-12T21:35:02.451Z,92.70
2023-01-12T21:40:07.231Z,92.70
2023-01-12T21:45:09.849Z,92.60
2023-01-12T21:50:12.590Z,92.60
2023-01-12T21:55:16.178Z,92.90
2023-01-12T22:00:19.005Z,92.40
2023-01-12T22:05:21.691Z,92.30
2023-01-12T22:10:25.614Z,92.30
2023-01-12T22:15:29.835Z,92.30
2023-01-12T22:20:32.159Z,92.30
2023-01-12T22:25:37.530Z,92.30
2023-01-12T22:30:39.612Z,92.30
2023-01-12T22:35:41.726Z,92.30
2023-01-12T22:40:45.292Z,92.30
2023-01-12T22:45:47.418Z,92.30
2023-01-12T22:50:49.578Z,92.20
2023-01-12T22:55:53.132Z,92.20
2023-01-12T23:00:55.425Z,92.10
2023-01-12T23:05:57.798Z,92.00
2023-01-12T23:11:06.148Z,91.90
2023-01-12T23:16:09.883Z,91.80
2023-01-12T23:21:14.484Z,91.70
2023-01-12T23:26:20.211Z,91.70
2023-01-12T23:31:24.930Z,91.70
2023-01-12T23:36:30.771Z,91.70
2023-01-12T23:41:36.055Z,91.80
2023-01-12T23:46:40.232Z,91.70
2023-01-12T23:51:42.430Z,91.60
2023-01-12T23:56:46.036Z,91.50
